KHQM/HQM METAR and TAF weather

Enter ICAO airport designator
Station Type Date Time Source
KHQM METAR 2018/12/12 10:53 UTC NOAA

KHQM 121053Z AUTO 28010G18KT 9SM FEW039 SCT050 SCT070 08/04 A3011 RMK AO2 RAB34E45 SLP200 P0000 T00830039


Station Type Date Time Source
KHQM Decoded METAR 2018/12/12 10:53 UTC NOAA

HOQUIAM BOWERMAN AIRPORT, WA, United States (KHQM) 46-58N 123-56W 7M
Dec 12, 2018 - 05:53 AM EST / 2018.12.12 1053 UTC
Wind: from the W (280 degrees) at 12 MPH (10 KT) gusting to 21 MPH (18 KT):0
Visibility: 9 mile(s):0
Sky conditions: partly cloudy
Precipitation last hour: A trace
Temperature: 46.9 F (8.3 C)
Dew Point: 39.0 F (3.9 C)
Relative Humidity: 73%
Pressure (altimeter): 30.11 in. Hg (1019 hPa)
ob: KHQM 121053Z AUTO 28010G18KT 9SM FEW039 SCT050 SCT070 08/04 A3011 RMK AO2 RAB34E45 SLP200 P0000 T00830039
cycle: 11

Station Type Date Time Source
KHQM TAF 2018/12/12 12:33 UTC NOAA

TAF KHQM 121131Z 1212/1312 26012KT P6SM SCT035 BKN060
FM121800 18012G18KT P6SM VCSH SCT025 BKN050 OVC120
FM122100 18016G26KT 6SM -RA BR OVC025
FM130300 17020G30KT 5SM RA BR OVC015


Example: see airport list